Time;durP1;ratioP1;P1;durP2;ratioP2;P2;SDS_P1;SDS_P2;PMS_P1;PMS_P2;Temp;Humidity;BMP_temperature;BMP_pressure;BME280_temperature;BME280_humidity;BME280_pressure;Samples;Min_cycle;Max_cycle;Signal;HPM_P1;HPM_P2
2023/04/05 00:01:18;;;;;;;2.27;1.70;;;;;;;2.72;64.96;101828.31;5015280;28;20666;-85
2023/04/05 00:03:46;;;;;;;2.53;1.87;;;;;;;2.70;65.13;101812.78;5015657;28;20227;-85
2023/04/05 00:06:15;;;;;;;4.17;2.10;;;;;;;2.65;66.30;101805.72;5015202;28;20215;-85
2023/04/05 00:08:43;;;;;;;2.17;1.70;;;;;;;2.62;66.41;101796.19;5015255;28;20314;-86
2023/04/05 00:11:10;;;;;;;2.60;1.93;;;;;;;2.68;65.49;101782.63;5015232;28;20245;-83
2023/04/05 00:13:37;;;;;;;2.13;1.80;;;;;;;2.65;64.97;101762.75;5014959;28;20591;-85
2023/04/05 00:16:04;;;;;;;1.90;1.80;;;;;;;2.63;65.13;101776.44;5014702;28;20210;-84
2023/04/05 00:18:33;;;;;;;2.27;1.67;;;;;;;2.47;64.67;101783.63;5013989;28;20717;-86
2023/04/05 00:20:59;;;;;;;2.70;1.87;;;;;;;2.36;64.86;101788.41;5014542;28;20209;-85
2023/04/05 00:23:26;;;;;;;2.13;1.80;;;;;;;2.44;64.71;101791.25;5014521;28;20262;-84
2023/04/05 00:25:52;;;;;;;3.17;1.87;;;;;;;2.42;64.74;101800.63;5014626;28;20213;-87
2023/04/05 00:28:19;;;;;;;2.33;1.87;;;;;;;2.41;64.02;101813.44;5014723;28;20658;-86
2023/04/05 00:30:47;;;;;;;2.80;1.80;;;;;;;2.45;64.10;101821.34;5014710;28;20681;-85
2023/04/05 00:33:13;;;;;;;2.33;2.13;;;;;;;2.36;64.48;101826.19;5014997;28;20613;-85
2023/04/05 00:35:39;;;;;;;3.50;2.60;;;;;;;2.32;63.77;101830.34;5022978;28;20206;-84
2023/04/05 00:38:06;;;;;;;1.80;1.70;;;;;;;2.32;63.83;101832.91;5014549;28;20273;-87
2023/04/05 00:40:32;;;;;;;2.40;1.83;;;;;;;2.36;63.32;101833.91;5014690;28;20260;-87
2023/04/05 00:42:58;;;;;;;2.07;1.60;;;;;;;2.30;62.79;101844.84;5014500;28;20269;-84
2023/04/05 00:45:26;;;;;;;2.97;1.47;;;;;;;2.17;61.33;101851.22;5014880;28;20207;-85
2023/04/05 00:47:54;;;;;;;2.27;2.07;;;;;;;2.15;62.00;101888.94;5014512;28;20227;-85
2023/04/05 00:50:21;;;;;;;2.87;2.00;;;;;;;2.21;62.48;101887.41;5014455;28;20306;-86
2023/04/05 00:52:48;;;;;;;2.00;1.80;;;;;;;2.17;64.14;101894.16;5014919;28;20260;-84
2023/04/05 00:55:16;;;;;;;2.30;1.90;;;;;;;2.22;64.59;101869.44;5014469;28;20249;-87
2023/04/05 00:57:44;;;;;;;3.27;2.57;;;;;;;2.22;65.35;101853.09;5019188;28;20227;-85
2023/04/05 01:00:11;;;;;;;2.30;1.93;;;;;;;2.18;66.69;101836.63;5018592;28;20207;-84
2023/04/05 01:02:48;;;;;;;3.10;2.90;;;;;;;2.14;66.89;101820.22;5018430;28;20229;-84
2023/04/05 01:05:34;;;;;;;4.30;3.03;;;;;;;1.90;67.02;101797.00;5024422;28;20210;-84
2023/04/05 01:08:12;;;;;;;3.90;3.60;;;;;;;1.96;67.22;101763.75;5011432;28;20674;-86
2023/04/05 01:10:42;;;;;;;3.63;3.33;;;;;;;1.79;66.60;101760.53;5018103;28;20304;-85
2023/04/05 01:13:08;;;;;;;3.70;3.40;;;;;;;1.87;66.03;101759.94;5017963;28;20283;-84
2023/04/05 01:15:35;;;;;;;4.37;3.97;;;;;;;1.94;66.67;101761.91;5017554;28;20199;-85
2023/04/05 01:18:02;;;;;;;5.07;3.70;;;;;;;1.95;67.04;101761.97;5017657;28;20717;-86
2023/04/05 01:20:34;;;;;;;2.93;2.73;;;;;;;1.97;67.74;101749.16;5017577;28;20206;-86
2023/04/05 01:23:25;;;;;;;6.20;3.23;;;;;;;2.00;68.12;101728.66;5017356;28;20691;-85
2023/04/05 01:26:33;;;;;;;3.63;3.30;;;;;;;1.91;69.50;101721.47;5017105;28;20245;-86
2023/04/05 01:29:29;;;;;;;3.37;3.03;;;;;;;1.81;70.55;101690.22;5017866;28;20199;-87
2023/04/05 01:32:03;;;;;;;4.13;3.17;;;;;;;1.81;69.84;101652.47;5021112;28;20226;-86
2023/04/05 01:34:36;;;;;;;4.10;3.53;;;;;;;1.86;69.82;101642.31;5017439;28;20216;-85
2023/04/05 01:37:07;;;;;;;4.33;2.90;;;;;;;1.90;69.55;101627.06;5016906;28;20260;-85
2023/04/05 01:39:35;;;;;;;2.67;2.47;;;;;;;1.89;68.36;101621.84;5016906;28;20215;-84
2023/04/05 01:42:03;;;;;;;3.67;2.87;;;;;;;1.78;67.95;101649.75;5016349;28;20214;-87
2023/04/05 01:44:29;;;;;;;2.63;2.43;;;;;;;1.77;68.42;101650.59;5016462;28;20240;-84
2023/04/05 01:46:56;;;;;;;2.70;2.50;;;;;;;1.71;69.27;101647.81;5016482;28;20279;-84
2023/04/05 01:49:24;;;;;;;3.17;2.30;;;;;;;1.65;70.20;101640.72;5016894;28;20242;-86
2023/04/05 01:51:50;;;;;;;3.40;2.77;;;;;;;1.47;69.63;101629.78;5016665;28;20608;-85
2023/04/05 01:54:17;;;;;;;4.63;2.63;;;;;;;1.43;69.79;101626.19;5016934;28;20206;-86
2023/04/05 01:56:43;;;;;;;2.67;2.47;;;;;;;1.41;71.57;101608.94;5016951;28;20207;-84
2023/04/05 01:59:09;;;;;;;4.30;2.47;;;;;;;1.38;71.01;101589.13;5017328;28;20203;-84
2023/04/05 02:01:36;;;;;;;2.47;2.27;;;;;;;1.45;70.52;101585.06;5017309;28;20250;-84
2023/04/05 02:04:02;;;;;;;3.10;2.70;;;;;;;1.51;70.06;101573.31;5016467;28;20635;-84
2023/04/05 02:06:31;;;;;;;2.40;2.20;;;;;;;1.49;70.95;101582.69;5016434;28;20801;-84
2023/04/05 02:08:57;;;;;;;4.60;2.73;;;;;;;1.44;72.02;101579.06;5017120;28;20300;-83
2023/04/05 02:11:24;;;;;;;3.77;2.60;;;;;;;1.38;71.25;101566.84;5016799;28;20268;-83
2023/04/05 02:13:50;;;;;;;3.03;2.73;;;;;;;1.46;71.08;101561.97;5016909;28;20216;-83
2023/04/05 02:16:17;;;;;;;2.40;2.20;;;;;;;1.41;71.36;101578.97;5016595;28;20199;-85
2023/04/05 02:18:49;;;;;;;2.93;2.53;;;;;;;1.36;70.74;101571.06;5016538;28;20236;-83
2023/04/05 02:21:20;;;;;;;2.37;2.17;;;;;;;1.32;71.76;101574.34;5016302;28;20562;-84
2023/04/05 02:23:48;;;;;;;2.97;2.70;;;;;;;1.35;71.35;101558.16;5015934;28;20217;-83
2023/04/05 02:26:15;;;;;;;2.67;2.47;;;;;;;1.32;71.14;101563.16;5015982;28;20317;-84
2023/04/05 02:28:42;;;;;;;3.43;2.70;;;;;;;1.41;70.39;101558.38;5015926;28;20707;-83
2023/04/05 02:31:10;;;;;;;2.97;2.77;;;;;;;1.34;71.45;101582.97;5016957;28;20206;-86
2023/04/05 02:33:38;;;;;;;3.30;3.00;;;;;;;1.31;71.99;101563.97;5016997;28;20778;-83
2023/04/05 02:36:05;;;;;;;4.30;2.80;;;;;;;1.25;71.31;101563.75;5022178;28;20208;-83
2023/04/05 02:38:32;;;;;;;2.87;2.67;;;;;;;1.25;70.97;101553.47;5019212;28;20602;-85
2023/04/05 02:41:00;;;;;;;3.13;2.67;;;;;;;1.10;71.14;101554.66;5016816;28;20250;-85
2023/04/05 02:43:26;;;;;;;3.07;2.60;;;;;;;1.07;70.70;101552.00;5016555;28;20234;-84
2023/04/05 02:45:52;;;;;;;4.03;2.23;;;;;;;1.14;70.16;101564.22;5016599;28;20231;-83
2023/04/05 02:48:19;;;;;;;4.07;2.47;;;;;;;1.21;71.39;101562.78;5016413;28;20231;-83
2023/04/05 02:50:50;;;;;;;3.93;2.43;;;;;;;1.19;70.80;101567.00;5016702;28;20201;-85
2023/04/05 02:53:17;;;;;;;2.40;2.10;;;;;;;1.05;70.34;101575.88;5016261;28;20695;-83
2023/04/05 02:55:44;;;;;;;2.53;2.30;;;;;;;0.96;70.42;101586.69;5016541;28;20543;-84
2023/04/05 02:58:13;;;;;;;3.10;2.30;;;;;;;0.89;70.67;101589.81;5016739;28;20225;-83
2023/04/05 03:00:39;;;;;;;3.00;2.70;;;;;;;0.93;70.43;101587.44;5017295;28;20300;-83
2023/04/05 03:03:09;;;;;;;2.43;2.23;;;;;;;0.97;70.37;101585.84;5016541;28;20261;-84
2023/04/05 03:05:36;;;;;;;6.30;2.30;;;;;;;1.03;71.88;101592.94;5024629;28;20210;-84
2023/04/05 03:08:02;;;;;;;3.40;2.57;;;;;;;0.96;70.14;101582.41;5046118;23;20225;-73
2023/04/05 03:10:33;;;;;;;3.43;2.10;;;;;;;0.95;70.64;101590.97;5053166;28;20286;-73
2023/04/05 03:13:00;;;;;;;2.73;2.37;;;;;;;0.89;71.38;101574.41;5053332;28;20622;-73
2023/04/05 03:15:27;;;;;;;3.17;2.87;;;;;;;0.92;70.29;101570.25;5053006;28;20259;-73
2023/04/05 03:17:56;;;;;;;2.93;2.20;;;;;;;0.73;71.11;101578.06;5053162;28;20261;-73
2023/04/05 03:20:22;;;;;;;2.33;2.13;;;;;;;0.75;71.97;101571.28;5052496;28;20315;-71
2023/04/05 03:22:49;;;;;;;2.30;2.10;;;;;;;0.83;72.24;101551.03;5052889;28;20205;-73
2023/04/05 03:25:16;;;;;;;3.07;2.47;;;;;;;0.79;72.02;101540.66;5052547;28;20676;-73
2023/04/05 03:27:42;;;;;;;3.17;2.57;;;;;;;0.84;72.07;101533.09;5053165;28;20202;-73
2023/04/05 03:30:09;;;;;;;2.50;2.30;;;;;;;0.91;71.48;101527.41;5052552;28;20806;-73
2023/04/05 03:32:37;;;;;;;2.70;2.50;;;;;;;0.86;72.47;101518.63;5052628;28;20593;-73
2023/04/05 03:35:04;;;;;;;2.80;2.57;;;;;;;0.76;72.03;101503.66;5052723;28;20204;-74
2023/04/05 03:37:31;;;;;;;3.63;2.50;;;;;;;0.84;72.59;101502.25;5052414;28;20242;-73
2023/04/05 03:39:57;;;;;;;4.63;2.50;;;;;;;0.87;71.92;101502.38;5052655;28;20281;-73
2023/04/05 03:42:24;;;;;;;2.83;2.50;;;;;;;0.92;72.10;101500.00;5052741;28;20578;-73
2023/04/05 03:44:52;;;;;;;3.20;2.67;;;;;;;0.87;72.46;101506.63;5052609;28;20289;-73
2023/04/05 03:47:19;;;;;;;4.03;2.57;;;;;;;0.74;72.12;101507.88;5052530;28;20281;-73
2023/04/05 03:49:46;;;;;;;2.90;2.57;;;;;;;0.59;72.45;101511.63;5052307;28;20737;-73
2023/04/05 03:52:13;;;;;;;3.27;2.97;;;;;;;0.69;72.24;101501.69;5051100;28;20277;-73
2023/04/05 03:54:39;;;;;;;3.70;3.13;;;;;;;0.67;72.36;101491.34;5052025;28;20641;-73
2023/04/05 03:57:06;;;;;;;3.60;2.93;;;;;;;0.56;72.54;101502.91;5052221;28;20206;-73
2023/04/05 03:59:33;;;;;;;4.23;3.20;;;;;;;0.63;73.09;101502.31;5052270;28;20268;-73
2023/04/05 04:01:59;;;;;;;3.37;3.07;;;;;;;0.56;72.35;101501.22;5052618;28;20204;-73
2023/04/05 04:04:26;;;;;;;3.90;3.50;;;;;;;0.52;72.11;101504.47;5052417;28;20204;-73
2023/04/05 04:06:55;;;;;;;3.67;3.37;;;;;;;0.47;72.54;101515.38;5052098;28;20254;-73
2023/04/05 04:09:22;;;;;;;5.43;4.10;;;;;;;0.48;72.84;101512.00;5052478;28;20242;-74
2023/04/05 04:11:49;;;;;;;4.50;4.07;;;;;;;0.43;72.23;101504.09;5052506;28;20342;-74
2023/04/05 04:14:15;;;;;;;5.10;3.60;;;;;;;0.41;72.50;101508.31;5051784;28;20720;-73
2023/04/05 04:16:42;;;;;;;4.40;3.50;;;;;;;0.45;73.44;101515.31;5052017;28;20261;-73
2023/04/05 04:19:08;;;;;;;4.83;3.83;;;;;;;0.52;73.71;101495.91;5052196;28;20211;-73
2023/04/05 04:21:34;;;;;;;3.60;2.80;;;;;;;0.46;73.79;101496.53;5051929;28;20638;-73
2023/04/05 04:24:02;;;;;;;3.30;3.00;;;;;;;0.44;74.86;101481.84;5051789;28;20253;-73
2023/04/05 04:26:29;;;;;;;3.23;2.93;;;;;;;0.33;74.61;101471.19;5051524;28;20680;-73
2023/04/05 04:28:55;;;;;;;3.57;2.97;;;;;;;0.34;74.31;101457.53;5051840;28;20264;-73
2023/04/05 04:31:22;;;;;;;6.80;3.10;;;;;;;0.36;73.68;101469.59;5050678;28;20578;-73
2023/04/05 04:33:50;;;;;;;2.83;2.60;;;;;;;0.46;74.11;101472.53;5051571;28;20260;-73
2023/04/05 04:36:33;;;;;;;3.67;2.93;;;;;;;0.38;74.10;101474.81;5051604;28;20204;-73
2023/04/05 04:39:03;;;;;;;3.33;2.63;;;;;;;0.39;74.52;101479.13;5052149;28;20200;-73
2023/04/05 04:41:32;;;;;;;3.00;2.80;;;;;;;0.43;73.94;101472.41;5051741;28;20258;-73
2023/04/05 04:44:01;;;;;;;2.60;2.23;;;;;;;0.45;73.97;101465.63;5051608;28;20204;-73
2023/04/05 04:46:29;;;;;;;2.53;2.20;;;;;;;0.42;73.39;101471.53;5051531;28;20258;-73
2023/04/05 04:48:56;;;;;;;2.50;2.30;;;;;;;0.42;73.36;101484.38;5051615;28;20296;-73
2023/04/05 04:51:22;;;;;;;2.60;2.40;;;;;;;0.46;72.88;101481.13;5051253;28;20227;-73
2023/04/05 04:53:49;;;;;;;3.20;2.90;;;;;;;0.57;73.39;101496.94;5051448;28;20232;-73
2023/04/05 04:56:16;;;;;;;3.93;2.33;;;;;;;0.56;74.06;101496.06;5051435;28;20669;-73
2023/04/05 04:58:43;;;;;;;4.40;2.40;;;;;;;0.61;74.49;101488.53;5051778;28;20243;-73
2023/04/05 05:01:09;;;;;;;2.80;2.27;;;;;;;0.67;74.89;101477.63;5051402;28;20644;-73
2023/04/05 05:03:37;;;;;;;2.10;2.00;;;;;;;0.68;74.78;101477.69;5051399;28;20239;-73
2023/04/05 05:06:04;;;;;;;2.80;2.10;;;;;;;0.77;75.52;101452.34;5051135;28;20218;-73
2023/04/05 05:08:31;;;;;;;3.00;2.27;;;;;;;0.74;74.88;101457.34;5054243;22;20234;-85
2023/04/05 05:10:57;;;;;;;2.50;2.23;;;;;;;0.84;74.63;101448.28;5035496;28;20228;-85
2023/04/05 05:13:25;;;;;;;2.37;2.17;;;;;;;0.90;73.00;101461.38;5035197;28;20706;-84
2023/04/05 05:15:51;;;;;;;2.60;2.40;;;;;;;0.98;72.46;101472.81;5035608;28;20555;-85
2023/04/05 05:18:18;;;;;;;3.90;2.63;;;;;;;1.02;72.98;101499.50;5036480;28;20231;-86
2023/04/05 05:20:45;;;;;;;2.63;2.40;;;;;;;0.96;73.92;101504.41;5035639;28;20265;-85
2023/04/05 05:23:12;;;;;;;2.83;2.63;;;;;;;1.00;74.94;101488.28;5035789;28;20569;-85
2023/04/05 05:25:39;;;;;;;2.70;2.50;;;;;;;1.02;75.86;101473.78;5034915;28;20672;-85
2023/04/05 05:28:05;;;;;;;3.20;2.90;;;;;;;0.95;75.89;101452.16;5035241;28;20218;-85
2023/04/05 05:30:33;;;;;;;3.20;2.83;;;;;;;0.98;74.86;101452.25;5035223;28;20206;-85
2023/04/05 05:33:00;;;;;;;3.57;3.10;;;;;;;1.03;76.55;101449.84;5035455;28;20568;-85
2023/04/05 05:35:26;;;;;;;4.07;2.70;;;;;;;0.95;76.97;101429.00;5034629;28;20226;-85
2023/04/05 05:37:53;;;;;;;4.50;2.90;;;;;;;1.06;77.83;101397.66;5035373;28;20240;-85
2023/04/05 05:40:19;;;;;;;3.13;2.57;;;;;;;1.07;76.81;101384.88;5035692;28;20212;-85
2023/04/05 05:42:46;;;;;;;4.37;3.10;;;;;;;1.13;75.83;101381.59;5036939;28;20217;-85
2023/04/05 05:45:12;;;;;;;3.37;2.87;;;;;;;1.11;77.11;101384.16;5039788;28;20213;-85
2023/04/05 05:47:40;;;;;;;3.07;2.70;;;;;;;1.26;76.46;101385.50;5043140;28;20224;-85
2023/04/05 05:50:08;;;;;;;2.83;2.63;;;;;;;1.17;77.18;101383.50;5038595;28;20213;-85
2023/04/05 05:52:35;;;;;;;3.97;3.10;;;;;;;1.22;76.20;101393.94;5038376;28;20220;-85
2023/04/05 05:55:02;;;;;;;4.60;3.00;;;;;;;1.29;76.21;101393.28;5035947;28;20259;-82
2023/04/05 05:57:28;;;;;;;3.07;2.77;;;;;;;1.24;71.63;101400.00;5028916;28;20271;-81
2023/04/05 05:59:54;;;;;;;4.43;3.27;;;;;;;1.10;68.59;101482.66;5027062;28;20247;-83
2023/04/05 06:02:21;;;;;;;4.60;2.70;;;;;;;1.32;69.51;101546.03;5027958;28;20206;-81
2023/04/05 06:04:48;;;;;;;3.13;2.43;;;;;;;1.47;72.21;101576.59;5028454;28;20698;-83
2023/04/05 06:07:15;;;;;;;6.00;3.20;;;;;;;1.58;72.63;101562.41;5027044;28;20800;-82
2023/04/05 06:09:44;;;;;;;3.30;3.00;;;;;;;1.63;73.71;101543.72;5026007;28;20195;-80
2023/04/05 06:12:10;;;;;;;3.37;2.80;;;;;;;1.62;74.33;101540.25;5034364;28;20296;-84
2023/04/05 06:14:36;;;;;;;6.30;3.13;;;;;;;1.57;76.34;101504.06;5038931;28;20259;-84
2023/04/05 06:17:03;;;;;;;3.33;3.00;;;;;;;1.56;76.09;101470.56;5036717;28;20256;-83
2023/04/05 06:19:29;;;;;;;3.17;2.80;;;;;;;1.58;75.92;101468.91;5036474;28;20237;-83
2023/04/05 06:21:59;;;;;;;3.17;2.80;;;;;;;1.69;74.80;101457.28;5036438;28;20210;-83
2023/04/05 06:24:26;;;;;;;5.23;3.10;;;;;;;1.78;73.88;101467.00;5036966;28;20206;-83
2023/04/05 06:26:52;;;;;;;3.50;3.07;;;;;;;1.77;73.37;101491.88;5037478;28;20202;-82
2023/04/05 06:29:18;;;;;;;3.50;3.20;;;;;;;1.88;74.36;101492.22;5037562;28;20209;-81
2023/04/05 06:31:47;;;;;;;3.27;3.00;;;;;;;1.92;73.31;101493.22;5037713;28;20213;-83
2023/04/05 06:34:13;;;;;;;4.03;3.73;;;;;;;1.96;72.50;101519.13;5038198;28;20324;-82
2023/04/05 06:36:39;;;;;;;4.17;3.20;;;;;;;2.15;72.18;101535.19;5037602;28;20332;-83
2023/04/05 06:39:07;;;;;;;4.03;3.13;;;;;;;2.07;73.05;101545.22;5037448;28;20246;-82
2023/04/05 06:41:33;;;;;;;3.80;3.47;;;;;;;2.22;72.56;101533.66;5037460;28;20237;-81
2023/04/05 06:44:00;;;;;;;4.40;3.90;;;;;;;2.33;71.24;101548.66;5037720;28;20206;-82
2023/04/05 06:46:26;;;;;;;4.53;4.13;;;;;;;2.42;70.61;101568.72;5038287;28;20270;-83
2023/04/05 06:48:53;;;;;;;4.93;4.53;;;;;;;2.49;70.02;101596.41;5042966;28;20226;-84
2023/04/05 06:51:20;;;;;;;5.63;3.97;;;;;;;2.53;69.52;101611.16;5041533;28;20202;-81
2023/04/05 06:53:46;;;;;;;4.33;3.93;;;;;;;2.57;69.55;101640.47;5037631;28;20206;-82
2023/04/05 06:56:14;;;;;;;4.60;4.20;;;;;;;2.53;71.23;101646.38;5038114;28;20210;-84
2023/04/05 06:58:40;;;;;;;4.90;4.50;;;;;;;2.57;71.02;101622.44;5037499;28;20222;-85
2023/04/05 07:01:07;;;;;;;4.43;4.03;;;;;;;2.58;70.74;101634.53;5037197;28;20217;-82
2023/04/05 07:03:33;;;;;;;5.90;5.30;;;;;;;2.67;70.35;101636.50;5037168;28;20214;-82
2023/04/05 07:06:00;;;;;;;5.60;5.20;;;;;;;2.72;69.32;101646.16;5038819;28;20229;-82
2023/04/05 07:08:29;;;;;;;7.60;4.50;;;;;;;2.76;67.82;101663.47;5036882;28;20237;-82
2023/04/05 07:10:55;;;;;;;3.87;3.57;;;;;;;2.82;67.58;101692.88;5036410;28;20240;-79
2023/04/05 07:13:24;;;;;;;4.00;3.60;;;;;;;2.84;66.77;101723.03;5035749;28;20612;-80
2023/04/05 07:15:51;;;;;;;4.10;3.80;;;;;;;2.84;66.15;101747.94;5035211;28;20258;-81
2023/04/05 07:18:17;;;;;;;5.20;4.70;;;;;;;2.90;66.64;101763.63;5035828;28;20222;-81
2023/04/05 07:20:47;;;;;;;6.47;3.53;;;;;;;2.95;67.31;101769.78;5036096;28;20560;-82
2023/04/05 07:23:14;;;;;;;4.33;4.03;;;;;;;3.04;68.36;101780.44;5036233;28;20204;-84
2023/04/05 07:25:40;;;;;;;4.27;3.53;;;;;;;3.11;69.69;101753.13;5038104;28;20608;-85
2023/04/05 07:28:07;;;;;;;4.90;4.27;;;;;;;3.12;70.89;101729.09;5036732;28;20226;-82
2023/04/05 07:30:35;;;;;;;4.27;3.87;;;;;;;3.29;71.40;101690.91;5037217;28;20596;-84
2023/04/05 07:33:02;;;;;;;4.07;3.40;;;;;;;3.27;71.05;101662.50;5036798;28;20224;-82
2023/04/05 07:35:28;;;;;;;4.00;3.60;;;;;;;3.40;69.07;101652.53;5034805;28;20237;-83
2023/04/05 07:37:55;;;;;;;4.73;4.17;;;;;;;3.50;68.11;101668.34;5036841;28;20223;-83
2023/04/05 07:40:22;;;;;;;4.27;3.87;;;;;;;3.37;70.73;101686.88;5036241;28;20233;-84
2023/04/05 07:42:48;;;;;;;4.07;3.70;;;;;;;3.51;70.51;101657.19;5037332;28;20206;-84
2023/04/05 07:45:14;;;;;;;5.93;4.13;;;;;;;3.54;69.67;101652.09;5036440;28;20225;-86
2023/04/05 07:47:42;;;;;;;4.23;3.83;;;;;;;3.53;67.49;101663.28;5037036;28;20713;-84
2023/04/05 07:50:10;;;;;;;3.90;3.57;;;;;;;3.53;67.98;101683.94;5036826;28;20235;-84
2023/04/05 07:52:37;;;;;;;4.40;4.03;;;;;;;3.56;68.94;101689.16;5037094;28;20289;-83
2023/04/05 07:55:03;;;;;;;4.33;3.93;;;;;;;3.59;70.04;101675.50;5034376;28;20229;-83
2023/04/05 07:57:30;;;;;;;5.87;4.53;;;;;;;3.50;72.16;101686.41;5027477;28;20645;-83
2023/04/05 07:59:56;;;;;;;5.60;4.60;;;;;;;3.60;72.71;101630.75;5026766;28;20609;-83
2023/04/05 08:02:23;;;;;;;5.00;4.53;;;;;;;3.42;74.84;101588.94;5024280;28;20210;-84
2023/04/05 08:04:50;;;;;;;4.90;4.43;;;;;;;3.45;75.19;101532.22;5025966;28;20206;-84
2023/04/05 08:07:17;;;;;;;6.57;4.83;;;;;;;3.68;73.97;101502.75;5026306;28;20226;-82
2023/04/05 08:09:43;;;;;;;6.03;4.63;;;;;;;3.90;73.50;101496.44;5024257;28;20361;-82
2023/04/05 08:12:10;;;;;;;5.33;4.90;;;;;;;4.01;72.82;101516.53;5026405;28;20198;-83
2023/04/05 08:14:37;;;;;;;4.87;4.33;;;;;;;3.93;72.96;101524.06;5026576;28;20222;-85
2023/04/05 08:17:03;;;;;;;7.03;4.50;;;;;;;4.08;72.69;101527.03;5026077;28;20199;-84
2023/04/05 08:19:29;;;;;;;4.40;4.10;;;;;;;4.19;71.75;101532.47;5026142;28;20214;-83
2023/04/05 08:21:57;;;;;;;4.60;4.17;;;;;;;4.14;71.74;101555.63;5026401;28;20668;-83
2023/04/05 08:24:23;;;;;;;5.00;4.57;;;;;;;4.18;71.26;101561.72;5025963;28;20225;-83
2023/04/05 08:26:50;;;;;;;4.33;3.93;;;;;;;4.23;71.11;101569.59;5028739;28;20202;-85
2023/04/05 08:29:16;;;;;;;4.93;4.43;;;;;;;4.20;70.59;101585.88;5026959;28;20277;-86
2023/04/05 08:31:43;;;;;;;6.70;3.93;;;;;;;4.20;71.14;101596.22;5024850;28;20229;-84
2023/04/05 08:34:09;;;;;;;5.73;4.40;;;;;;;4.06;71.29;101603.63;5024732;28;20263;-84
2023/04/05 08:36:35;;;;;;;4.80;4.40;;;;;;;4.15;71.48;101600.41;5029089;28;20209;-84
2023/04/05 08:39:03;;;;;;;5.23;4.33;;;;;;;4.08;70.65;101599.38;5026518;28;20233;-83
2023/04/05 08:41:36;;;;;;;4.40;4.00;;;;;;;3.95;68.22;101605.06;5026625;28;20203;-83
2023/04/05 08:44:04;;;;;;;3.43;3.20;;;;;;;3.91;63.54;101673.84;5027452;28;20339;-82
2023/04/05 08:46:32;;;;;;;4.00;3.60;;;;;;;4.05;65.09;101743.13;5027215;28;20202;-84
2023/04/05 08:48:58;;;;;;;3.97;3.60;;;;;;;4.12;66.00;101756.25;5025833;28;20235;-83
2023/04/05 08:51:26;;;;;;;3.90;3.53;;;;;;;4.34;64.74;101760.31;5027279;28;20273;-83
2023/04/05 08:53:53;;;;;;;4.77;4.13;;;;;;;4.45;62.05;101793.34;5024556;28;20387;-83
2023/04/05 08:56:25;;;;;;;4.23;3.63;;;;;;;4.49;59.69;101840.00;5026935;28;20250;-84
2023/04/05 08:58:59;;;;;;;4.00;3.20;;;;;;;4.63;59.72;101905.03;5024738;28;20703;-85
2023/04/05 09:01:29;;;;;;;3.77;3.47;;;;;;;4.70;59.20;101957.84;5029965;28;20197;-83
2023/04/05 09:03:57;;;;;;;3.23;2.93;;;;;;;4.77;58.08;101991.69;5025635;28;20338;-83
2023/04/05 09:06:25;;;;;;;3.40;3.10;;;;;;;4.87;58.07;102034.22;5029556;28;20205;-85
2023/04/05 09:08:53;;;;;;;3.47;3.13;;;;;;;4.91;57.95;102066.25;5023060;28;20721;-84
2023/04/05 09:11:21;;;;;;;3.87;3.47;;;;;;;4.98;56.47;102081.16;5029853;28;20234;-82
2023/04/05 09:13:47;;;;;;;2.93;2.63;;;;;;;5.04;54.81;102125.31;5024653;28;20211;-82
2023/04/05 09:16:14;;;;;;;4.13;2.33;;;;;;;5.14;53.69;102170.50;5027044;28;20228;-84
2023/04/05 09:18:41;;;;;;;3.07;2.13;;;;;;;5.12;51.19;102216.16;5030110;28;20218;-84
2023/04/05 09:21:08;;;;;;;2.70;2.40;;;;;;;5.25;51.52;102288.22;5031007;28;20199;-84
2023/04/05 09:23:35;;;;;;;2.73;2.50;;;;;;;5.37;51.93;102343.00;5028581;28;20277;-80
2023/04/05 09:26:17;;;;;;;3.97;3.53;;;;;;;5.49;51.38;102355.47;5029457;28;20664;-84
2023/04/05 09:28:45;;;;;;;2.90;2.20;;;;;;;5.57;51.23;102389.41;5031417;28;20573;-84
2023/04/05 09:31:29;;;;;;;2.67;2.47;;;;;;;5.56;52.95;102434.25;5030408;28;20195;-84
2023/04/05 09:33:57;;;;;;;2.17;2.07;;;;;;;5.58;51.67;102412.75;5030621;28;20199;-85
2023/04/05 09:36:24;;;;;;;2.23;2.00;;;;;;;5.63;49.69;102418.09;5031415;28;20268;-84
2023/04/05 09:38:50;;;;;;;1.93;1.83;;;;;;;5.66;51.12;102470.00;5032349;28;20230;-84
2023/04/05 09:41:17;;;;;;;2.23;2.03;;;;;;;5.70;49.16;102445.94;5030706;28;20199;-85
2023/04/05 09:43:44;;;;;;;2.93;2.60;;;;;;;5.80;49.42;102464.41;5029271;28;20206;-82
2023/04/05 09:46:30;;;;;;;3.43;3.13;;;;;;;5.77;47.52;102488.50;5028735;28;20195;-84
2023/04/05 09:48:57;;;;;;;7.50;3.27;;;;;;;5.88;47.75;102520.84;5031046;28;20221;-85
2023/04/05 09:51:23;;;;;;;3.30;3.00;;;;;;;5.97;47.17;102549.72;5031247;28;20347;-86
2023/04/05 09:53:58;;;;;;;3.77;3.47;;;;;;;6.06;47.23;102571.59;5029338;28;20206;-83
2023/04/05 09:56:24;;;;;;;6.60;2.93;;;;;;;6.02;46.89;102583.56;5028899;28;20301;-83
2023/04/05 09:58:52;;;;;;;3.03;2.80;;;;;;;6.02;46.81;102587.88;5028345;28;20254;-83
2023/04/05 10:01:19;;;;;;;2.83;2.63;;;;;;;5.98;46.50;102623.16;5028197;28;20221;-82
2023/04/05 10:03:47;;;;;;;2.83;2.63;;;;;;;5.98;46.31;102623.16;5027255;28;20213;-81
2023/04/05 10:06:14;;;;;;;3.23;2.80;;;;;;;5.98;47.27;102651.69;5029427;28;20211;-84
2023/04/05 10:08:40;;;;;;;3.33;2.17;;;;;;;6.07;45.85;102622.63;5030517;28;20735;-83
2023/04/05 10:11:07;;;;;;;2.50;2.30;;;;;;;6.19;46.84;102642.91;5029713;28;20247;-85
2023/04/05 10:13:34;;;;;;;2.93;2.73;;;;;;;6.30;46.79;102632.09;5025679;28;20233;-82
2023/04/05 10:16:05;;;;;;;2.90;2.67;;;;;;;6.36;45.88;102624.50;5029145;28;20255;-83
2023/04/05 10:18:40;;;;;;;3.17;2.83;;;;;;;6.28;45.11;102623.38;5027815;28;20215;-85
2023/04/05 10:21:11;;;;;;;2.97;2.33;;;;;;;6.39;45.10;102636.69;5029763;28;20680;-82
2023/04/05 10:23:40;;;;;;;3.13;2.80;;;;;;;6.53;45.67;102644.94;5030796;28;20231;-84
2023/04/05 10:26:15;;;;;;;2.90;2.63;;;;;;;6.74;46.19;102629.19;5029223;28;20566;-86
2023/04/05 10:28:46;;;;;;;3.50;3.13;;;;;;;6.88;45.49;102625.31;5027107;28;20219;-82
2023/04/05 10:31:25;;;;;;;2.70;2.50;;;;;;;7.03;44.69;102618.81;5028706;28;20207;-84
2023/04/05 10:33:55;;;;;;;2.67;2.47;;;;;;;7.11;44.24;102633.81;5027470;28;20690;-84
2023/04/05 10:36:37;;;;;;;3.17;2.87;;;;;;;7.14;44.10;102644.28;5027904;28;20274;-82
2023/04/05 10:39:12;;;;;;;3.57;3.30;;;;;;;7.18;43.37;102650.47;5021758;28;20229;-83
2023/04/05 10:41:42;;;;;;;3.20;3.00;;;;;;;7.11;43.49;102675.34;5017560;28;20243;-83
2023/04/05 10:44:10;;;;;;;3.50;3.20;;;;;;;6.66;42.07;102686.03;5017879;28;20768;-81
2023/04/05 10:46:40;;;;;;;3.03;2.80;;;;;;;6.97;45.92;102719.06;5016942;28;20728;-82
2023/04/05 10:49:12;;;;;;;4.87;3.53;;;;;;;7.12;43.74;102669.34;5016051;28;20742;-83
2023/04/05 10:51:39;;;;;;;3.60;3.30;;;;;;;7.27;43.32;102673.25;5016680;28;20272;-82
2023/04/05 10:54:08;;;;;;;3.17;2.87;;;;;;;7.34;43.00;102675.19;5016799;28;20247;-84
2023/04/05 10:56:34;;;;;;;3.83;2.70;;;;;;;7.53;45.68;102700.00;5017093;28;20266;-83
2023/04/05 10:59:01;;;;;;;2.87;2.60;;;;;;;7.67;43.72;102648.44;5015900;28;20732;-83
2023/04/05 11:01:28;;;;;;;3.73;2.40;;;;;;;7.81;45.58;102696.53;5016792;28;20210;-81
2023/04/05 11:03:56;;;;;;;3.50;2.20;;;;;;;8.00;44.94;102658.03;5016433;28;20291;-82
2023/04/05 11:06:25;;;;;;;3.57;2.27;;;;;;;8.17;42.97;102607.34;5025662;28;20269;-83
2023/04/05 11:08:54;;;;;;;2.40;2.20;;;;;;;8.24;42.99;102637.88;5054994;23;20328;-80
2023/04/05 11:11:23;;;;;;;2.37;2.10;;;;;;;8.35;43.13;102654.66;5034134;28;20245;-80
2023/04/05 11:13:53;;;;;;;3.20;2.73;;;;;;;8.50;43.33;102656.81;5032637;28;20206;-80
2023/04/05 11:16:19;;;;;;;2.40;2.20;;;;;;;8.61;41.60;102638.84;5033833;28;20319;-79
2023/04/05 11:18:47;;;;;;;2.50;2.30;;;;;;;8.80;42.12;102676.66;5033936;28;20267;-80
2023/04/05 11:21:22;;;;;;;3.00;2.70;;;;;;;9.02;42.19;102659.81;5033284;28;20578;-78
2023/04/05 11:24:06;;;;;;;2.97;2.67;;;;;;;9.24;40.52;102658.56;5034146;28;20203;-80
2023/04/05 11:26:54;;;;;;;3.47;2.20;;;;;;;9.46;43.31;102704.22;5033961;28;20198;-79
2023/04/05 11:29:53;;;;;;;2.30;2.20;;;;;;;9.63;42.44;102696.78;5034137;28;20229;-79
2023/04/05 11:32:19;;;;;;;2.47;2.37;;;;;;;10.01;40.31;102669.69;5034174;28;20256;-77
2023/04/05 11:34:58;;;;;;;2.47;2.27;;;;;;;10.64;39.55;102669.13;5034037;28;20235;-80
2023/04/05 11:38:05;;;;;;;3.33;3.07;;;;;;;12.47;38.06;102666.31;5033207;28;20316;-78
2023/04/05 11:40:33;;;;;;;1.87;1.77;;;;;;;14.48;33.93;102681.31;5033361;28;20705;-78